createdAt,value
2022-10-21T00:00:16.033Z,16.20
2022-10-21T00:02:45.933Z,15.05
2022-10-21T00:05:16.204Z,19.35
2022-10-21T00:07:46.068Z,19.25
2022-10-21T00:10:16.335Z,20.33
2022-10-21T00:12:46.444Z,16.85
2022-10-21T00:15:16.279Z,20.75
2022-10-21T00:17:47.202Z,15.63
2022-10-21T00:20:16.907Z,15.98
2022-10-21T00:22:46.472Z,32.92
2022-10-21T00:25:16.574Z,14.90
2022-10-21T00:27:46.278Z,15.85
2022-10-21T00:30:16.363Z,14.68
2022-10-21T00:32:45.924Z,16.30
2022-10-21T00:35:15.525Z,16.15
2022-10-21T00:37:45.069Z,15.35
2022-10-21T00:40:14.586Z,16.42
2022-10-21T00:42:46.674Z,12.70
2022-10-21T00:45:20.866Z,15.30
2022-10-21T00:48:29.512Z,14.40
2022-10-21T00:51:10.382Z,14.93
2022-10-21T00:53:43.070Z,11.23
2022-10-21T00:56:16.953Z,15.00
2022-10-21T00:58:49.358Z,14.75
2022-10-21T01:01:21.565Z,13.13
2022-10-21T01:03:53.197Z,9.63
2022-10-21T01:06:27.848Z,11.27
2022-10-21T01:08:59.278Z,9.65
2022-10-21T01:11:30.246Z,8.27
2022-10-21T01:14:29.887Z,8.20
2022-10-21T01:17:44.459Z,5.45
2022-10-21T01:20:54.128Z,5.50
2022-10-21T01:24:03.006Z,5.10
2022-10-21T01:27:11.685Z,4.80
2022-10-21T01:30:09.578Z,4.78
2022-10-21T01:35:50.102Z,3.65
2022-10-21T01:38:36.737Z,5.20
2022-10-21T01:41:45.493Z,4.15
2022-10-21T01:44:34.713Z,5.80
2022-10-21T01:47:16.171Z,5.38
2022-10-21T01:49:57.269Z,7.85
2022-10-21T01:52:27.162Z,4.55
2022-10-21T01:55:06.201Z,5.47
2022-10-21T01:57:43.571Z,4.75
2022-10-21T02:00:13.528Z,4.47
2022-10-21T02:02:48.294Z,3.97
2022-10-21T02:05:29.978Z,4.80
2022-10-21T02:07:59.758Z,4.85
2022-10-21T02:10:34.454Z,4.55
2022-10-21T02:13:07.038Z,3.72
2022-10-21T02:15:38.292Z,7.88
2022-10-21T02:18:12.542Z,4.90
2022-10-21T02:20:46.495Z,6.95
2022-10-21T02:23:21.107Z,4.82
2022-10-21T02:25:53.298Z,3.92
2022-10-21T02:28:23.633Z,5.68
2022-10-21T02:31:12.579Z,6.15
2022-10-21T02:34:21.186Z,5.00
2022-10-21T02:37:29.989Z,4.65
2022-10-21T02:40:14.352Z,4.35
2022-10-21T02:42:54.124Z,10.15
2022-10-21T02:45:25.016Z,3.88
2022-10-21T02:47:55.265Z,6.55
2022-10-21T02:50:25.146Z,3.65
2022-10-21T02:52:55.031Z,5.35
2022-10-21T02:55:25.020Z,4.10
2022-10-21T02:57:54.846Z,4.03
2022-10-21T03:00:25.510Z,6.47
2022-10-21T03:02:55.444Z,4.40
2022-10-21T03:05:25.373Z,4.85
2022-10-21T03:07:55.216Z,3.90
2022-10-21T03:10:25.075Z,4.57
2022-10-21T03:12:55.347Z,2.83
2022-10-21T03:15:25.301Z,4.30
2022-10-21T03:17:55.663Z,4.85
2022-10-21T03:20:25.938Z,5.70
2022-10-21T03:22:55.738Z,5.40
2022-10-21T03:25:25.587Z,3.75
2022-10-21T03:27:55.446Z,3.83
2022-10-21T03:30:25.267Z,3.67
2022-10-21T03:32:55.158Z,4.13
2022-10-21T03:35:25.061Z,5.85
2022-10-21T03:37:54.930Z,4.32
2022-10-21T03:40:25.853Z,6.90
2022-10-21T03:42:55.744Z,4.72
2022-10-21T03:45:25.630Z,3.80
2022-10-21T03:47:55.618Z,3.80
2022-10-21T03:50:26.811Z,4.38
2022-10-21T03:52:58.218Z,6.20
2022-10-21T03:55:28.487Z,4.55
2022-10-21T03:57:58.504Z,5.80
2022-10-21T04:00:30.926Z,5.45
2022-10-21T04:03:01.627Z,3.88
2022-10-21T04:05:31.499Z,4.30
2022-10-21T04:08:01.359Z,2.65
2022-10-21T04:10:31.411Z,3.00
2022-10-21T04:13:01.238Z,2.65
2022-10-21T04:15:31.403Z,3.33
2022-10-21T04:18:02.467Z,7.22
2022-10-21T04:20:32.282Z,4.03
2022-10-21T04:23:02.097Z,3.58
2022-10-21T04:25:32.187Z,3.90
2022-10-21T04:28:02.038Z,3.33
2022-10-21T04:30:31.841Z,2.65
2022-10-21T04:33:01.647Z,5.20
2022-10-21T04:35:31.631Z,3.72
2022-10-21T04:38:02.123Z,2.58
2022-10-21T04:40:31.967Z,2.72
2022-10-21T04:43:01.812Z,4.00
2022-10-21T04:45:31.685Z,3.40
2022-10-21T04:48:01.542Z,4.20
2022-10-21T04:50:31.406Z,4.07
2022-10-21T04:53:01.247Z,2.80
2022-10-21T04:55:31.178Z,4.85
2022-10-21T04:58:01.000Z,2.65
2022-10-21T05:00:30.893Z,4.25
2022-10-21T05:03:01.278Z,3.30
2022-10-21T05:05:31.147Z,3.03
2022-10-21T05:08:01.046Z,2.83
2022-10-21T05:10:32.115Z,2.45
2022-10-21T05:13:02.060Z,3.95
2022-10-21T05:15:31.922Z,4.68
2022-10-21T05:18:02.509Z,2.72
2022-10-21T05:20:32.092Z,3.80
2022-10-21T05:23:01.639Z,3.60
2022-10-21T05:25:34.138Z,3.67
2022-10-21T05:28:04.184Z,2.55
2022-10-21T05:30:33.837Z,3.22
2022-10-21T05:33:03.372Z,3.00
2022-10-21T05:35:33.034Z,2.13
2022-10-21T05:38:02.759Z,2.78
2022-10-21T05:40:32.666Z,4.35
2022-10-21T05:43:02.619Z,3.75
2022-10-21T05:45:32.233Z,3.40
2022-10-21T05:48:01.779Z,3.30
2022-10-21T05:50:31.287Z,6.07
2022-10-21T05:53:00.827Z,2.65
2022-10-21T05:55:30.545Z,2.58
2022-10-21T05:58:00.142Z,2.92
2022-10-21T06:00:29.740Z,2.50
2022-10-21T06:02:59.368Z,3.75
2022-10-21T06:05:29.092Z,2.83
2022-10-21T06:07:58.713Z,3.42
2022-10-21T06:10:29.211Z,2.30
2022-10-21T06:12:58.888Z,7.63
2022-10-21T06:15:28.419Z,4.53
2022-10-21T06:17:57.965Z,4.32
2022-10-21T06:20:28.606Z,3.20
2022-10-21T06:23:00.620Z,3.10
2022-10-21T06:25:30.757Z,2.63
2022-10-21T06:28:00.603Z,4.03
2022-10-21T06:30:30.503Z,2.50
2022-10-21T06:33:00.450Z,4.60
2022-10-21T06:35:30.358Z,2.38
2022-10-21T06:38:00.188Z,4.38
2022-10-21T06:40:30.081Z,2.78
2022-10-21T06:42:59.972Z,1.88
2022-10-21T06:45:29.923Z,3.13
2022-10-21T06:47:59.802Z,4.75
2022-10-21T06:50:29.618Z,2.72
2022-10-21T06:52:59.691Z,2.47
2022-10-21T06:55:29.610Z,3.53
2022-10-21T06:58:00.670Z,2.42
2022-10-21T07:03:00.064Z,2.60
2022-10-21T07:05:29.971Z,2.65
2022-10-21T07:07:59.861Z,1.95
2022-10-21T07:10:29.773Z,1.98
2022-10-21T07:12:59.708Z,2.60
2022-10-21T07:15:29.491Z,2.83
2022-10-21T07:18:02.698Z,2.20
2022-10-21T07:20:32.523Z,2.55
2022-10-21T07:23:02.593Z,2.55
2022-10-21T07:25:32.447Z,3.28
2022-10-21T07:28:02.532Z,4.53
2022-10-21T07:30:32.392Z,3.35
2022-10-21T07:33:02.122Z,3.17
2022-10-21T07:35:32.000Z,2.95
2022-10-21T07:38:01.808Z,1.67
2022-10-21T07:40:32.003Z,2.00
2022-10-21T07:43:01.990Z,3.60
2022-10-21T07:45:31.902Z,4.28
2022-10-21T07:48:01.776Z,2.90
2022-10-21T07:50:31.624Z,3.33
2022-10-21T07:53:11.946Z,3.03
2022-10-21T07:55:42.863Z,1.92
2022-10-21T07:58:13.078Z,2.10
2022-10-21T08:00:46.130Z,3.40
2022-10-21T08:03:16.024Z,2.05
2022-10-21T08:05:45.848Z,4.13
2022-10-21T08:08:15.754Z,2.05
2022-10-21T08:10:45.681Z,3.25
2022-10-21T08:13:16.019Z,3.08
2022-10-21T08:15:48.062Z,4.20
2022-10-21T08:18:19.290Z,6.90
2022-10-21T08:20:50.424Z,3.17
2022-10-21T08:23:22.079Z,3.20
2022-10-21T08:25:57.089Z,6.55
2022-10-21T08:28:28.549Z,3.58
2022-10-21T08:31:08.584Z,3.70
2022-10-21T08:33:38.819Z,7.07
2022-10-21T08:36:17.485Z,2.80
2022-10-21T08:38:47.627Z,4.82
2022-10-21T08:41:56.399Z,2.45
2022-10-21T08:44:55.604Z,3.45
2022-10-21T08:47:47.534Z,2.78
2022-10-21T08:50:23.123Z,2.03
2022-10-21T08:53:15.179Z,1.80
2022-10-21T08:55:47.023Z,3.50
2022-10-21T08:58:23.548Z,3.80
2022-10-21T09:01:32.203Z,4.85
2022-10-21T09:04:29.311Z,2.95
2022-10-21T09:07:24.704Z,3.05
2022-10-21T09:10:14.584Z,1.77
2022-10-21T09:13:09.751Z,3.72
2022-10-21T09:16:07.614Z,2.63
2022-10-21T09:19:05.724Z,2.03
2022-10-21T09:22:10.867Z,3.03
2022-10-21T09:25:29.434Z,37.00
2022-10-21T09:27:59.812Z,14.80
2022-10-21T09:30:29.990Z,11.63
2022-10-21T09:33:02.004Z,10.05
2022-10-21T09:35:53.378Z,6.82
2022-10-21T09:38:56.545Z,3.78
2022-10-21T09:41:33.350Z,3.47
2022-10-21T09:44:03.165Z,3.40
2022-10-21T09:46:33.111Z,3.63
2022-10-21T09:51:52.402Z,3.67
2022-10-21T09:54:28.445Z,4.38
2022-10-21T09:57:25.021Z,3.25
2022-10-21T10:00:05.237Z,2.95
2022-10-21T10:02:44.813Z,3.15
2022-10-21T10:05:39.079Z,3.33
2022-10-21T10:08:41.278Z,3.35
2022-10-21T10:11:18.905Z,4.63
2022-10-21T10:13:51.219Z,4.40
2022-10-21T10:16:32.630Z,5.03
2022-10-21T10:19:26.771Z,4.65
2022-10-21T10:22:17.245Z,4.72
2022-10-21T10:24:47.472Z,7.40
2022-10-21T10:27:22.294Z,5.25
2022-10-21T10:29:58.179Z,3.35
2022-10-21T10:32:33.866Z,5.85
2022-10-21T10:35:09.313Z,6.30
2022-10-21T10:37:40.414Z,4.22
2022-10-21T10:40:20.060Z,2.95
2022-10-21T10:42:50.055Z,3.50
2022-10-21T10:45:24.187Z,3.22
2022-10-21T10:47:57.879Z,3.38
2022-10-21T10:50:51.693Z,4.90
2022-10-21T10:53:41.174Z,8.95
2022-10-21T10:56:34.221Z,4.40
2022-10-21T10:59:31.762Z,5.28
2022-10-21T11:02:34.422Z,8.50
2022-10-21T11:05:30.890Z,17.15
2022-10-21T11:08:06.245Z,14.68
2022-10-21T11:11:01.574Z,17.25
2022-10-21T11:13:31.368Z,22.35
2022-10-21T11:16:29.549Z,10.15
2022-10-21T11:19:23.855Z,17.23
2022-10-21T11:22:06.044Z,14.30
2022-10-21T11:25:15.005Z,12.95
2022-10-21T11:28:23.654Z,18.65
2022-10-21T11:31:26.489Z,20.88
2022-10-21T11:34:20.432Z,16.25
2022-10-21T11:37:29.166Z,14.30
2022-10-21T11:40:25.659Z,13.57
2022-10-21T11:42:56.491Z,14.95
2022-10-21T11:45:51.824Z,17.52
2022-10-21T11:48:52.831Z,11.05
2022-10-21T11:51:50.624Z,12.63
2022-10-21T11:55:05.683Z,12.50
2022-10-21T11:58:17.360Z,13.63
2022-10-21T12:01:26.079Z,14.57
2022-10-21T12:04:20.524Z,15.35
2022-10-21T12:07:15.824Z,13.73
2022-10-21T12:10:04.010Z,8.95
2022-10-21T12:12:42.114Z,8.68
2022-10-21T12:15:36.324Z,10.20
2022-10-21T12:18:08.106Z,14.18
2022-10-21T12:20:37.679Z,10.27
2022-10-21T12:23:09.648Z,12.63
2022-10-21T12:26:02.184Z,11.48
2022-10-21T12:28:55.639Z,11.07
2022-10-21T12:32:04.273Z,9.10
2022-10-21T12:34:34.990Z,8.70
2022-10-21T12:37:04.528Z,9.68
2022-10-21T12:40:10.773Z,10.77
2022-10-21T12:42:48.887Z,14.85
2022-10-21T12:45:39.351Z,11.85
2022-10-21T12:48:29.592Z,14.90
2022-10-21T12:51:03.302Z,13.05
2022-10-21T12:53:54.548Z,9.70
2022-10-21T12:56:38.458Z,10.88
2022-10-21T12:59:09.248Z,12.32
2022-10-21T13:01:48.222Z,11.30
2022-10-21T13:04:52.331Z,9.20
2022-10-21T13:07:37.744Z,12.48
2022-10-21T13:10:17.392Z,11.23
2022-10-21T13:12:49.131Z,12.32
2022-10-21T13:15:46.491Z,11.30
2022-10-21T13:18:55.179Z,15.38
2022-10-21T13:21:45.071Z,17.83
2022-10-21T13:24:28.052Z,9.82
2022-10-21T13:27:00.949Z,10.80
2022-10-21T13:29:50.842Z,13.40
2022-10-21T13:32:34.261Z,8.75
2022-10-21T13:35:28.461Z,8.48
2022-10-21T13:38:19.699Z,16.05
2022-10-21T13:40:54.928Z,13.48
2022-10-21T13:43:40.270Z,9.68
2022-10-21T13:46:21.927Z,8.18
2022-10-21T13:48:51.719Z,7.63
2022-10-21T13:51:30.117Z,11.68
2022-10-21T13:54:09.810Z,10.30
2022-10-21T13:56:40.850Z,10.02
2022-10-21T13:59:30.477Z,9.70
2022-10-21T14:02:00.653Z,9.73
2022-10-21T14:04:35.553Z,13.90
2022-10-21T14:07:09.693Z,10.43
2022-10-21T14:09:52.854Z,10.63
2022-10-21T14:12:35.643Z,11.20
2022-10-21T14:15:11.202Z,13.00
2022-10-21T14:17:45.970Z,13.70
2022-10-21T14:20:27.326Z,10.15
2022-10-21T14:22:57.876Z,9.30
2022-10-21T14:25:28.348Z,13.57
2022-10-21T14:27:58.067Z,16.00
2022-10-21T14:30:31.632Z,11.02
2022-10-21T14:33:05.379Z,13.77
2022-10-21T14:35:35.013Z,9.05
2022-10-21T14:38:05.983Z,14.85
2022-10-21T14:40:43.102Z,13.27
2022-10-21T14:43:22.970Z,10.73
2022-10-21T14:45:54.985Z,8.38
2022-10-21T14:48:40.605Z,13.10
2022-10-21T14:51:16.481Z,10.95
2022-10-21T14:53:58.546Z,11.85
2022-10-21T14:56:42.283Z,8.00
2022-10-21T14:59:27.293Z,11.63
2022-10-21T15:01:57.979Z,11.35
2022-10-21T15:04:58.498Z,12.30
2022-10-21T15:07:40.329Z,12.90
2022-10-21T15:10:18.701Z,10.20
2022-10-21T15:12:54.378Z,10.63
2022-10-21T15:15:53.823Z,15.57
2022-10-21T15:18:45.439Z,10.25
2022-10-21T15:21:32.336Z,9.55
2022-10-21T15:24:03.286Z,11.05
2022-10-21T15:26:39.380Z,11.18
2022-10-21T15:29:36.548Z,12.32
2022-10-21T15:32:07.817Z,9.00
2022-10-21T15:34:37.727Z,15.52
2022-10-21T15:37:09.018Z,10.27
2022-10-21T15:39:39.027Z,8.30
2022-10-21T15:42:09.034Z,15.75
2022-10-21T15:44:38.969Z,8.07
2022-10-21T15:47:12.944Z,12.95
2022-10-21T15:49:44.823Z,9.20
2022-10-21T15:52:15.711Z,11.88
2022-10-21T15:54:46.249Z,8.80
2022-10-21T15:57:22.578Z,9.00
2022-10-21T15:59:52.454Z,8.50
2022-10-21T16:02:22.297Z,12.80
2022-10-21T16:04:54.685Z,7.80
2022-10-21T16:07:30.948Z,10.00
2022-10-21T16:10:00.876Z,15.25
2022-10-21T16:12:30.869Z,13.45
2022-10-21T16:15:00.685Z,10.93
2022-10-21T16:17:30.618Z,15.73
2022-10-21T16:20:00.586Z,11.10
2022-10-21T16:22:32.434Z,10.40
2022-10-21T16:25:01.881Z,9.90
2022-10-21T16:27:43.779Z,8.95
2022-10-21T16:30:26.937Z,9.82
2022-10-21T16:32:56.881Z,11.23
2022-10-21T16:35:26.510Z,11.35
2022-10-21T16:37:57.891Z,10.13
2022-10-21T16:40:34.011Z,9.38
2022-10-21T16:43:03.628Z,8.93
2022-10-21T16:45:34.719Z,8.93
2022-10-21T16:48:08.120Z,10.77
2022-10-21T16:50:45.819Z,9.77
2022-10-21T16:53:18.093Z,10.52
2022-10-21T16:55:47.580Z,12.00
2022-10-21T16:58:17.319Z,7.32
2022-10-21T17:00:48.739Z,7.72
2022-10-21T17:03:18.266Z,8.07
2022-10-21T17:05:47.722Z,11.05
2022-10-21T17:08:17.498Z,9.80
2022-10-21T17:10:47.122Z,11.75
2022-10-21T17:13:16.622Z,7.82
2022-10-21T17:15:46.286Z,11.95
2022-10-21T17:18:16.028Z,9.75
2022-10-21T17:20:45.670Z,12.57
2022-10-21T17:23:16.203Z,8.90
2022-10-21T17:25:46.047Z,8.85
2022-10-21T17:28:15.998Z,11.55
2022-10-21T17:30:45.891Z,8.32
2022-10-21T17:33:16.328Z,10.77
2022-10-21T17:35:46.292Z,11.13
2022-10-21T17:38:16.582Z,6.82
2022-10-21T17:40:46.457Z,9.45
2022-10-21T17:43:16.332Z,11.05
2022-10-21T17:45:46.185Z,12.23
2022-10-21T17:48:16.072Z,7.75
2022-10-21T17:50:46.161Z,8.80
2022-10-21T17:53:16.007Z,6.15
2022-10-21T17:55:45.821Z,9.52
2022-10-21T17:58:15.918Z,6.53
2022-10-21T18:00:45.806Z,7.68
2022-10-21T18:03:19.574Z,11.48
2022-10-21T18:05:49.592Z,10.30
2022-10-21T18:08:19.481Z,10.15
2022-10-21T18:10:57.804Z,9.40
2022-10-21T18:13:29.972Z,10.45
2022-10-21T18:16:08.982Z,7.38
2022-10-21T18:18:39.250Z,8.13
2022-10-21T18:21:22.458Z,6.82
2022-10-21T18:23:54.634Z,10.10
2022-10-21T18:26:27.425Z,10.60
2022-10-21T18:29:01.211Z,12.43
2022-10-21T18:31:33.977Z,14.10
2022-10-21T18:34:05.659Z,10.15
2022-10-21T18:36:35.247Z,13.75
2022-10-21T18:39:04.909Z,13.73
2022-10-21T18:41:34.411Z,7.00
2022-10-21T18:44:09.704Z,11.32
2022-10-21T18:46:41.081Z,6.55
2022-10-21T18:49:16.699Z,11.02
2022-10-21T18:51:46.473Z,10.85
2022-10-21T18:54:17.379Z,9.48
2022-10-21T18:56:47.118Z,12.13
2022-10-21T18:59:16.662Z,8.23
2022-10-21T19:01:46.278Z,7.95
2022-10-21T19:04:16.134Z,9.07
2022-10-21T19:06:47.892Z,8.20
2022-10-21T19:09:20.497Z,11.45
2022-10-21T19:11:50.396Z,9.07
2022-10-21T19:14:20.857Z,7.45
2022-10-21T19:16:51.207Z,7.72
2022-10-21T19:19:20.706Z,6.90
2022-10-21T19:21:50.247Z,9.88
2022-10-21T19:24:22.113Z,12.05
2022-10-21T19:26:58.045Z,8.68
2022-10-21T19:29:28.698Z,10.77
2022-10-21T19:31:58.573Z,10.80
2022-10-21T19:34:28.599Z,8.20
2022-10-21T19:36:58.451Z,15.77
2022-10-21T19:39:28.331Z,10.73
2022-10-21T19:41:58.241Z,11.55
2022-10-21T19:44:28.130Z,10.32
2022-10-21T19:46:57.973Z,9.20
2022-10-21T19:49:27.803Z,7.85
2022-10-21T19:51:57.725Z,18.67
2022-10-21T19:54:28.520Z,14.45
2022-10-21T19:56:58.315Z,9.15
2022-10-21T19:59:28.232Z,11.20
2022-10-21T20:01:59.339Z,8.15
2022-10-21T20:04:31.367Z,7.25
2022-10-21T20:07:03.847Z,6.43
2022-10-21T20:09:35.103Z,7.72
2022-10-21T20:12:07.859Z,10.23
2022-10-21T20:14:38.292Z,9.15
2022-10-21T20:17:08.164Z,6.70
2022-10-21T20:19:38.101Z,8.68
2022-10-21T20:22:07.880Z,8.55
2022-10-21T20:24:39.747Z,9.85
2022-10-21T20:27:11.079Z,8.20
2022-10-21T20:29:40.995Z,7.20
2022-10-21T20:32:11.039Z,6.18
2022-10-21T20:34:41.633Z,7.13
2022-10-21T20:37:11.478Z,9.30
2022-10-21T20:39:41.372Z,8.82
2022-10-21T20:42:11.224Z,6.35
2022-10-21T20:44:41.111Z,7.03
2022-10-21T20:47:11.071Z,7.88
2022-10-21T20:49:41.266Z,7.97
2022-10-21T20:52:11.108Z,6.35
2022-10-21T20:54:41.204Z,5.85
2022-10-21T20:57:11.104Z,10.52
2022-10-21T20:59:40.945Z,15.57
2022-10-21T21:02:12.074Z,6.40
2022-10-21T21:04:41.878Z,5.95
2022-10-21T21:07:13.437Z,7.30
2022-10-21T21:10:01.755Z,7.30
2022-10-21T21:12:32.827Z,6.88
2022-10-21T21:15:02.698Z,9.50
2022-10-21T21:17:32.663Z,6.63
2022-10-21T21:20:02.481Z,7.93
2022-10-21T21:22:32.016Z,11.77
2022-10-21T21:25:01.618Z,10.35
2022-10-21T21:27:32.028Z,6.20
2022-10-21T21:30:01.603Z,7.00
2022-10-21T21:32:31.167Z,6.90
2022-10-21T21:35:03.575Z,7.32
2022-10-21T21:37:35.544Z,8.43
2022-10-21T21:40:05.480Z,9.65
2022-10-21T21:42:35.205Z,7.68
2022-10-21T21:45:04.845Z,6.20
2022-10-21T21:47:34.351Z,7.45
2022-10-21T21:50:03.879Z,9.43
2022-10-21T21:52:33.901Z,6.75
2022-10-21T21:55:03.448Z,7.35
2022-10-21T21:57:33.010Z,10.45
2022-10-21T22:00:02.496Z,6.53
2022-10-21T22:02:31.963Z,6.93
2022-10-21T22:05:01.587Z,8.18
2022-10-21T22:07:31.090Z,8.23
2022-10-21T22:10:00.772Z,8.40
2022-10-21T22:12:30.299Z,6.82
2022-10-21T22:14:59.877Z,7.30
2022-10-21T22:17:29.302Z,8.40
2022-10-21T22:19:58.997Z,9.45
2022-10-21T22:22:29.178Z,7.18
2022-10-21T22:24:58.687Z,8.15
2022-10-21T22:27:28.621Z,6.43
2022-10-21T22:29:58.213Z,8.43
2022-10-21T22:32:27.738Z,7.88
2022-10-21T22:34:57.213Z,11.75
2022-10-21T22:37:26.739Z,10.43
2022-10-21T22:39:56.274Z,12.25
2022-10-21T22:42:25.851Z,7.25
2022-10-21T22:44:55.347Z,10.60
2022-10-21T22:47:25.171Z,7.82
2022-10-21T22:49:55.063Z,8.93
2022-10-21T22:52:24.620Z,10.38
2022-10-21T22:54:54.204Z,16.00
2022-10-21T22:57:23.790Z,9.48
2022-10-21T22:59:53.658Z,11.38
2022-10-21T23:02:23.374Z,11.15
2022-10-21T23:04:53.057Z,9.32
2022-10-21T23:07:22.618Z,5.85
2022-10-21T23:09:53.229Z,10.25
2022-10-21T23:12:22.871Z,8.38
2022-10-21T23:14:52.493Z,11.32
2022-10-21T23:17:21.954Z,7.82
2022-10-21T23:19:51.522Z,8.63
2022-10-21T23:22:21.767Z,8.25
2022-10-21T23:24:52.061Z,8.85
2022-10-21T23:27:21.561Z,9.00
2022-10-21T23:29:51.073Z,7.03
2022-10-21T23:32:20.687Z,9.05
2022-10-21T23:34:50.187Z,10.02
2022-10-21T23:39:50.124Z,10.32
2022-10-21T23:42:19.622Z,7.47
2022-10-21T23:44:49.179Z,8.75
2022-10-21T23:47:18.898Z,9.48
2022-10-21T23:49:48.571Z,8.52
2022-10-21T23:52:18.211Z,9.32
2022-10-21T23:54:47.760Z,10.48
2022-10-21T23:57:17.252Z,8.30
2022-10-21T23:59:46.682Z,8.15
